createdAt,value
2019-04-10T00:00:24.043Z,1.20
2019-04-10T00:02:53.952Z,1.43
2019-04-10T00:05:23.880Z,1.20
2019-04-10T00:07:53.875Z,1.20
2019-04-10T00:10:23.888Z,1.60
2019-04-10T00:12:54.201Z,1.30
2019-04-10T00:15:24.388Z,1.40
2019-04-10T00:17:55.598Z,1.40
2019-04-10T00:20:26.671Z,1.40
2019-04-10T00:22:56.693Z,1.50
2019-04-10T00:25:27.005Z,1.63
2019-04-10T00:27:57.019Z,1.30
2019-04-10T00:30:27.109Z,1.50
2019-04-10T00:32:58.431Z,1.70
2019-04-10T00:35:29.627Z,1.73
2019-04-10T00:37:59.719Z,1.63
2019-04-10T00:40:31.144Z,1.83
2019-04-10T00:43:02.246Z,1.60
2019-04-10T00:45:33.420Z,1.50
2019-04-10T00:48:03.709Z,1.90
2019-04-10T00:50:34.795Z,1.80
2019-04-10T00:53:05.294Z,1.97
2019-04-10T00:55:35.609Z,1.77
2019-04-10T00:58:05.922Z,1.90
2019-04-10T01:00:36.948Z,1.83
2019-04-10T01:03:07.544Z,2.00
2019-04-10T01:05:37.742Z,1.80
2019-04-10T01:08:08.729Z,1.90
2019-04-10T01:10:39.021Z,1.73
2019-04-10T01:13:08.928Z,2.33
2019-04-10T01:15:39.229Z,2.50
2019-04-10T01:18:09.143Z,1.93
2019-04-10T01:20:39.826Z,2.10
2019-04-10T01:23:10.261Z,2.03
2019-04-10T01:25:40.877Z,2.13
2019-04-10T01:28:10.861Z,2.13
2019-04-10T01:30:42.290Z,2.20
2019-04-10T01:33:12.490Z,2.20
2019-04-10T01:35:42.670Z,2.40
2019-04-10T01:38:13.445Z,2.30
2019-04-10T01:40:43.477Z,2.40
2019-04-10T01:43:17.564Z,2.17
2019-04-10T01:45:45.956Z,2.30
2019-04-10T01:48:15.870Z,2.30
2019-04-10T01:50:46.487Z,2.40
2019-04-10T01:53:17.604Z,2.43
2019-04-10T01:55:47.774Z,2.53
2019-04-10T01:58:19.332Z,2.50
2019-04-10T02:00:52.017Z,2.77
2019-04-10T02:03:22.431Z,2.50
2019-04-10T02:05:52.628Z,2.60
2019-04-10T02:08:23.649Z,2.67
2019-04-10T02:10:53.647Z,2.87
2019-04-10T02:13:23.558Z,2.80
2019-04-10T02:15:54.747Z,2.90
2019-04-10T02:18:25.513Z,3.20
2019-04-10T02:20:55.747Z,2.80
2019-04-10T02:23:26.126Z,3.10
2019-04-10T02:25:56.989Z,3.20
2019-04-10T02:28:27.086Z,3.00
2019-04-10T02:30:58.691Z,3.00
2019-04-10T02:33:29.377Z,3.33
2019-04-10T02:36:01.200Z,2.90
2019-04-10T02:38:49.218Z,3.20
2019-04-10T02:41:03.666Z,3.00
2019-04-10T02:43:33.763Z,3.33
2019-04-10T02:46:04.684Z,3.00
2019-04-10T02:48:36.081Z,3.20
2019-04-10T02:51:07.729Z,3.67
2019-04-10T02:53:39.331Z,3.13
2019-04-10T02:56:09.596Z,3.50
2019-04-10T02:58:40.180Z,3.20
2019-04-10T03:01:11.301Z,3.43
2019-04-10T03:03:42.537Z,3.30
2019-04-10T03:06:13.553Z,2.97
2019-04-10T03:08:58.715Z,3.30
2019-04-10T03:11:16.842Z,3.70
2019-04-10T03:13:48.973Z,3.30
2019-04-10T03:16:19.479Z,3.40
2019-04-10T03:18:49.519Z,3.37
2019-04-10T03:21:19.432Z,3.23
2019-04-10T03:23:49.610Z,3.40
2019-04-10T03:26:19.652Z,3.30
2019-04-10T03:28:49.763Z,3.50
2019-04-10T03:31:20.738Z,3.50
2019-04-10T03:33:55.423Z,3.10
2019-04-10T03:36:27.380Z,3.27
2019-04-10T03:39:02.009Z,3.50
2019-04-10T03:41:28.965Z,3.40
2019-04-10T03:43:58.908Z,3.40
2019-04-10T03:46:29.765Z,3.30
2019-04-10T03:48:59.883Z,3.47
2019-04-10T03:51:30.340Z,3.40
2019-04-10T03:54:00.301Z,3.43
2019-04-10T03:56:30.216Z,3.50
2019-04-10T03:59:00.138Z,3.27
2019-04-10T04:01:31.920Z,3.80
2019-04-10T04:04:02.031Z,3.50
2019-04-10T04:06:31.933Z,3.40
2019-04-10T04:09:08.981Z,3.60
2019-04-10T04:11:33.631Z,3.60
2019-04-10T04:14:04.080Z,3.63
2019-04-10T04:16:35.229Z,3.90
2019-04-10T04:19:05.937Z,3.67
2019-04-10T04:21:36.297Z,4.00
2019-04-10T04:24:07.135Z,3.60
2019-04-10T04:26:37.335Z,3.80
2019-04-10T04:29:07.614Z,3.87
2019-04-10T04:31:37.556Z,3.87
2019-04-10T04:34:07.674Z,3.97
2019-04-10T04:36:37.679Z,4.13
2019-04-10T04:39:21.078Z,4.30
2019-04-10T04:41:40.126Z,4.00
2019-04-10T04:44:10.327Z,4.03
2019-04-10T04:46:40.744Z,3.97
2019-04-10T04:49:11.530Z,4.47
2019-04-10T04:51:41.659Z,3.77
2019-04-10T04:54:11.699Z,4.03
2019-04-10T04:56:42.295Z,3.87
2019-04-10T04:59:12.238Z,4.20
2019-04-10T05:01:42.545Z,4.13
2019-04-10T05:04:13.119Z,4.20
2019-04-10T05:06:43.738Z,4.10
2019-04-10T05:09:25.909Z,4.10
2019-04-10T05:11:46.868Z,4.20
2019-04-10T05:14:17.520Z,4.30
2019-04-10T05:16:47.835Z,4.10
2019-04-10T05:19:18.954Z,4.60
2019-04-10T05:21:49.831Z,4.10
2019-04-10T05:24:19.991Z,4.30
2019-04-10T05:26:51.098Z,4.00
2019-04-10T05:29:21.680Z,4.80
2019-04-10T05:31:51.797Z,6.37
2019-04-10T05:34:22.076Z,5.47
2019-04-10T05:36:52.017Z,5.80
2019-04-10T05:39:22.486Z,5.47
2019-04-10T05:41:52.728Z,5.10
2019-04-10T05:44:23.566Z,4.40
2019-04-10T05:46:54.778Z,5.80
2019-04-10T05:49:25.025Z,5.10
2019-04-10T05:51:55.619Z,5.27
2019-04-10T05:54:25.541Z,5.83
2019-04-10T05:56:55.802Z,6.50
2019-04-10T05:59:25.966Z,5.40
2019-04-10T06:01:56.838Z,5.97
2019-04-10T06:04:27.455Z,5.70
2019-04-10T06:06:58.884Z,5.90
2019-04-10T06:09:28.965Z,6.03
2019-04-10T06:12:00.057Z,5.90
2019-04-10T06:14:30.430Z,5.97
2019-04-10T06:17:03.980Z,6.57
2019-04-10T06:19:32.842Z,6.53
2019-04-10T06:22:03.187Z,6.33
2019-04-10T06:24:33.940Z,6.27
2019-04-10T06:27:03.854Z,6.73
2019-04-10T06:29:35.055Z,6.43
2019-04-10T06:32:05.365Z,7.07
2019-04-10T06:34:36.401Z,6.80
2019-04-10T06:37:08.018Z,7.23
2019-04-10T06:39:38.039Z,7.57
2019-04-10T06:42:08.624Z,6.87
2019-04-10T06:44:39.047Z,7.17
2019-04-10T06:47:09.849Z,6.60
2019-04-10T06:49:40.667Z,7.90
2019-04-10T06:52:11.054Z,10.20
2019-04-10T06:54:40.960Z,7.60
2019-04-10T06:57:10.873Z,7.73
2019-04-10T06:59:41.879Z,7.73
2019-04-10T07:02:20.332Z,8.03
2019-04-10T07:04:52.386Z,7.13
2019-04-10T07:07:20.278Z,7.40
2019-04-10T07:09:48.309Z,7.03
2019-04-10T07:12:18.623Z,8.20
2019-04-10T07:14:51.556Z,7.67
2019-04-10T07:17:22.043Z,7.20
2019-04-10T07:19:52.191Z,7.53
2019-04-10T07:22:23.029Z,6.50
2019-04-10T07:24:54.464Z,6.80
2019-04-10T07:27:24.747Z,6.97
2019-04-10T07:29:58.081Z,7.10
2019-04-10T07:32:27.733Z,7.30
2019-04-10T07:35:00.304Z,7.00
2019-04-10T07:37:29.742Z,6.93
2019-04-10T07:40:02.683Z,6.97
2019-04-10T07:42:36.916Z,6.87
2019-04-10T07:45:03.515Z,6.93
2019-04-10T07:47:33.514Z,6.37
2019-04-10T07:50:05.387Z,6.40
2019-04-10T07:52:37.308Z,7.50
2019-04-10T07:55:08.768Z,7.93
2019-04-10T07:57:38.879Z,6.93
2019-04-10T08:00:11.188Z,6.43
2019-04-10T08:02:41.363Z,6.67
2019-04-10T08:05:12.332Z,6.00
2019-04-10T08:07:43.097Z,7.00
2019-04-10T08:10:14.345Z,6.37
2019-04-10T08:12:50.018Z,6.80
2019-04-10T08:15:16.860Z,6.50
2019-04-10T08:17:49.317Z,6.57
2019-04-10T08:20:18.716Z,6.37
2019-04-10T08:22:48.630Z,6.60
2019-04-10T08:25:18.551Z,5.97
2019-04-10T08:27:48.556Z,6.60
2019-04-10T08:30:19.551Z,5.43
2019-04-10T08:32:57.112Z,5.80
2019-04-10T08:35:21.343Z,5.87
2019-04-10T08:37:51.300Z,5.83
2019-04-10T08:40:23.137Z,5.40
2019-04-10T08:42:53.249Z,5.90
2019-04-10T08:45:23.160Z,5.57
2019-04-10T08:47:53.762Z,5.77
2019-04-10T08:50:23.827Z,5.70
2019-04-10T08:52:54.081Z,5.90
2019-04-10T08:55:24.082Z,6.00
2019-04-10T08:57:54.457Z,6.87
2019-04-10T09:00:24.999Z,5.47
2019-04-10T09:02:54.911Z,5.90
2019-04-10T09:05:25.785Z,6.60
2019-04-10T09:07:56.921Z,6.73
2019-04-10T09:10:28.068Z,5.70
2019-04-10T09:12:58.567Z,6.47
2019-04-10T09:15:29.866Z,7.00
2019-04-10T09:18:00.094Z,6.40
2019-04-10T09:20:30.961Z,5.87
2019-04-10T09:23:26.583Z,5.70
2019-04-10T09:25:33.468Z,6.13
2019-04-10T09:28:04.277Z,6.37
2019-04-10T09:30:35.353Z,5.53
2019-04-10T09:33:15.751Z,5.97
2019-04-10T09:35:38.452Z,6.07
2019-04-10T09:38:09.036Z,5.80
2019-04-10T09:40:40.517Z,5.83
2019-04-10T09:43:11.340Z,5.50
2019-04-10T09:45:42.019Z,5.90
2019-04-10T09:48:12.810Z,5.50
2019-04-10T09:50:43.799Z,5.13
2019-04-10T09:53:15.064Z,5.03
2019-04-10T09:55:45.017Z,5.20
2019-04-10T09:58:14.929Z,5.33
2019-04-10T10:00:45.862Z,5.80
2019-04-10T10:03:17.392Z,5.40
2019-04-10T10:05:47.747Z,5.10
2019-04-10T10:08:18.393Z,5.37
2019-04-10T10:10:49.168Z,5.70
2019-04-10T10:13:19.303Z,5.13
2019-04-10T10:15:49.459Z,5.60
2019-04-10T10:18:19.642Z,5.13
2019-04-10T10:20:50.224Z,5.80
2019-04-10T10:23:20.746Z,6.30
2019-04-10T10:25:51.258Z,5.83
2019-04-10T10:28:21.166Z,5.23
2019-04-10T10:30:51.553Z,4.53
2019-04-10T10:33:21.984Z,4.93
2019-04-10T10:35:52.096Z,4.80
2019-04-10T10:38:23.081Z,5.53
2019-04-10T10:40:53.454Z,5.17
2019-04-10T10:43:24.549Z,4.63
2019-04-10T10:45:55.442Z,4.80
2019-04-10T10:48:25.974Z,5.20
2019-04-10T10:50:56.673Z,4.67
2019-04-10T10:53:26.589Z,4.83
2019-04-10T10:55:56.599Z,4.80
2019-04-10T10:58:26.513Z,5.40
2019-04-10T11:00:57.554Z,4.90
2019-04-10T11:03:28.013Z,5.13
2019-04-10T11:05:58.262Z,5.10
2019-04-10T11:08:29.459Z,4.90
2019-04-10T11:11:00.794Z,4.50
2019-04-10T11:13:31.106Z,4.60
2019-04-10T11:16:03.805Z,4.13
2019-04-10T11:18:32.813Z,3.90
2019-04-10T11:21:08.005Z,3.93
2019-04-10T11:23:36.293Z,4.07
2019-04-10T11:26:06.668Z,4.20
2019-04-10T11:28:36.993Z,4.07
2019-04-10T11:31:07.138Z,4.10
2019-04-10T11:33:37.489Z,3.10
2019-04-10T11:36:08.091Z,2.57
2019-04-10T11:38:39.702Z,3.43
2019-04-10T11:41:10.186Z,3.33
2019-04-10T11:43:41.319Z,3.27
2019-04-10T11:46:13.584Z,3.40
2019-04-10T11:51:16.492Z,3.20
2019-04-10T11:53:48.703Z,3.00
2019-04-10T11:56:19.308Z,2.90
2019-04-10T11:58:55.589Z,3.20
2019-04-10T12:01:22.959Z,2.97
2019-04-10T12:03:56.069Z,2.87
2019-04-10T12:06:25.520Z,3.30
2019-04-10T12:09:24.838Z,2.87
2019-04-10T12:11:28.818Z,2.70
2019-04-10T12:13:58.998Z,2.67
2019-04-10T12:16:29.426Z,2.70
2019-04-10T12:18:59.622Z,2.50
2019-04-10T12:21:29.604Z,2.77
2019-04-10T12:23:59.546Z,2.60
2019-04-10T12:26:29.459Z,2.30
2019-04-10T12:29:00.361Z,2.90
2019-04-10T12:31:30.374Z,2.13
2019-04-10T12:34:01.369Z,2.43
2019-04-10T12:36:31.965Z,2.40
2019-04-10T12:39:01.877Z,2.07
2019-04-10T12:41:33.150Z,2.00
2019-04-10T12:44:03.717Z,1.83
2019-04-10T12:46:33.780Z,1.93
2019-04-10T12:49:03.851Z,2.17
2019-04-10T12:51:34.859Z,2.00
2019-04-10T12:54:05.456Z,1.90
2019-04-10T12:56:35.399Z,1.70
2019-04-10T12:59:06.805Z,1.97
2019-04-10T13:01:38.543Z,2.33
2019-04-10T13:04:08.776Z,2.00
2019-04-10T13:06:40.109Z,1.77
2019-04-10T13:09:13.021Z,2.00
2019-04-10T13:11:44.844Z,1.93
2019-04-10T13:14:15.113Z,1.80
2019-04-10T13:16:45.030Z,1.73
2019-04-10T13:19:15.137Z,1.60
2019-04-10T13:21:45.053Z,1.50
2019-04-10T13:24:15.353Z,1.50
2019-04-10T13:26:46.089Z,1.60
2019-04-10T13:29:16.264Z,1.70
2019-04-10T13:31:46.691Z,1.63
2019-04-10T13:34:18.217Z,1.60
2019-04-10T13:36:48.660Z,1.60
2019-04-10T13:39:19.298Z,1.50
2019-04-10T13:41:50.455Z,1.70
2019-04-10T13:44:20.389Z,2.00
2019-04-10T13:46:51.218Z,1.90
2019-04-10T13:49:21.975Z,1.63
2019-04-10T13:51:52.467Z,1.50
2019-04-10T13:54:22.848Z,1.60
2019-04-10T13:56:53.156Z,1.40
2019-04-10T13:59:24.772Z,1.50
2019-04-10T14:01:55.074Z,1.83
2019-04-10T14:04:25.129Z,1.67
2019-04-10T14:06:55.694Z,1.83
2019-04-10T14:09:35.888Z,1.60
2019-04-10T14:11:57.770Z,1.80
2019-04-10T14:14:28.667Z,1.80
2019-04-10T14:16:59.322Z,1.80
2019-04-10T14:19:30.458Z,1.43
2019-04-10T14:22:00.371Z,1.60
2019-04-10T14:24:40.401Z,1.60
2019-04-10T14:27:16.160Z,1.80
2019-04-10T14:29:47.013Z,1.90
2019-04-10T14:32:18.914Z,1.67
2019-04-10T14:34:50.413Z,1.40
2019-04-10T14:37:21.213Z,1.60
2019-04-10T14:39:51.786Z,1.97
2019-04-10T14:42:22.367Z,1.67
2019-04-10T14:44:53.053Z,1.40
2019-04-10T14:47:25.520Z,1.50
2019-04-10T14:49:56.968Z,1.40
2019-04-10T14:52:27.365Z,1.63
2019-04-10T14:54:57.460Z,1.37
2019-04-10T14:57:28.568Z,1.50
2019-04-10T14:59:59.899Z,1.60
2019-04-10T15:02:30.762Z,1.30
2019-04-10T15:05:01.666Z,1.77
2019-04-10T15:07:31.645Z,1.43
2019-04-10T15:10:01.563Z,1.80
2019-04-10T15:12:32.231Z,1.70
2019-04-10T15:15:02.466Z,2.00
2019-04-10T15:17:32.912Z,1.50
2019-04-10T15:20:04.820Z,1.63
2019-04-10T15:22:35.815Z,1.83
2019-04-10T15:25:07.475Z,1.30
2019-04-10T15:27:37.646Z,1.47
2019-04-10T15:30:10.533Z,1.60
2019-04-10T15:32:40.661Z,1.60
2019-04-10T15:35:10.818Z,1.50
2019-04-10T15:37:41.582Z,1.77
2019-04-10T15:40:20.000Z,1.40
2019-04-10T15:42:44.587Z,1.80
2019-04-10T15:45:14.820Z,1.40
2019-04-10T15:47:52.624Z,1.60
2019-04-10T15:50:18.073Z,1.77
2019-04-10T15:52:48.367Z,1.33
2019-04-10T15:55:19.508Z,1.33
2019-04-10T15:57:53.737Z,1.60
2019-04-10T16:00:23.204Z,1.30
2019-04-10T16:02:54.024Z,1.50
2019-04-10T16:05:25.799Z,1.40
2019-04-10T16:07:55.912Z,1.20
2019-04-10T16:10:28.671Z,1.30
2019-04-10T16:13:01.146Z,1.20
2019-04-10T16:15:42.835Z,1.40
2019-04-10T16:18:15.626Z,1.50
2019-04-10T16:20:47.466Z,1.53
2019-04-10T16:23:22.620Z,1.40
2019-04-10T16:25:54.451Z,1.30
2019-04-10T16:28:24.968Z,1.47
2019-04-10T16:30:55.201Z,1.40
2019-04-10T16:33:25.454Z,1.87
2019-04-10T16:35:56.962Z,1.60
2019-04-10T16:38:28.642Z,1.60
2019-04-10T16:40:58.708Z,2.00
2019-04-10T16:43:28.910Z,1.50
2019-04-10T16:45:59.471Z,1.20
2019-04-10T16:48:29.284Z,1.40
2019-04-10T16:50:59.702Z,1.53
2019-04-10T16:53:30.530Z,1.50
2019-04-10T16:56:01.027Z,1.73
2019-04-10T16:58:31.910Z,1.67
2019-04-10T17:01:02.517Z,1.93
2019-04-10T17:03:32.442Z,1.63
2019-04-10T17:06:03.896Z,1.90
2019-04-10T17:08:34.339Z,2.37
2019-04-10T17:11:07.054Z,2.80
2019-04-10T17:13:38.381Z,1.93
2019-04-10T17:16:09.290Z,2.33
2019-04-10T17:18:41.294Z,2.40
2019-04-10T17:21:11.567Z,2.43
2019-04-10T17:23:42.741Z,2.10
2019-04-10T17:26:13.334Z,2.50
2019-04-10T17:28:44.855Z,3.43
2019-04-10T17:31:16.254Z,3.00
2019-04-10T17:33:46.342Z,3.47
2019-04-10T17:36:18.857Z,3.50
2019-04-10T17:38:49.091Z,3.47
2019-04-10T17:41:19.682Z,2.80
2019-04-10T17:43:50.025Z,2.50
2019-04-10T17:46:20.234Z,2.73
2019-04-10T17:48:50.146Z,3.43
2019-04-10T17:51:20.158Z,4.57
2019-04-10T17:53:50.475Z,3.17
2019-04-10T17:56:20.673Z,3.60
2019-04-10T17:58:50.593Z,4.07
2019-04-10T18:01:22.982Z,3.40
2019-04-10T18:03:57.174Z,5.47
2019-04-10T18:06:25.611Z,4.47
2019-04-10T18:08:55.547Z,3.30
2019-04-10T18:11:25.666Z,4.23
2019-04-10T18:13:55.583Z,3.30
2019-04-10T18:16:25.657Z,3.13
2019-04-10T18:18:56.188Z,2.90
2019-04-10T18:21:26.310Z,3.23
2019-04-10T18:23:57.793Z,2.90
2019-04-10T18:26:27.893Z,3.07
2019-04-10T18:28:59.356Z,2.40
2019-04-10T18:31:29.979Z,2.37
2019-04-10T18:34:00.722Z,2.87
2019-04-10T18:36:31.930Z,2.70
2019-04-10T18:39:02.273Z,2.90
2019-04-10T18:41:32.482Z,2.67
2019-04-10T18:44:02.647Z,2.67
2019-04-10T18:46:32.605Z,2.60
2019-04-10T18:49:03.240Z,2.57
2019-04-10T18:51:34.095Z,3.20
2019-04-10T18:54:04.115Z,3.67
2019-04-10T18:56:34.027Z,2.80
2019-04-10T18:59:09.973Z,2.20
2019-04-10T19:01:45.354Z,2.73
2019-04-10T19:04:18.209Z,2.80
2019-04-10T19:06:53.221Z,2.80
2019-04-10T19:09:27.956Z,3.10
2019-04-10T19:11:56.911Z,2.73
2019-04-10T19:14:28.112Z,2.83
2019-04-10T19:16:58.499Z,2.83
2019-04-10T19:19:28.411Z,2.47
2019-04-10T19:21:58.424Z,3.00
2019-04-10T19:24:30.312Z,2.87
2019-04-10T19:27:00.339Z,2.47
2019-04-10T19:29:30.235Z,3.07
2019-04-10T19:32:02.165Z,3.10
2019-04-10T19:34:33.816Z,3.40
2019-04-10T19:37:04.544Z,3.13
2019-04-10T19:39:35.679Z,3.00
2019-04-10T19:42:06.454Z,2.90
2019-04-10T19:44:37.324Z,2.93
2019-04-10T19:47:08.378Z,3.40
2019-04-10T19:49:39.952Z,2.93
2019-04-10T19:52:11.970Z,2.60
2019-04-10T19:54:42.972Z,3.40
2019-04-10T19:57:15.190Z,3.40
2019-04-10T19:59:46.035Z,3.37
2019-04-10T20:02:17.036Z,3.07
2019-04-10T20:04:47.103Z,3.20
2019-04-10T20:07:17.212Z,2.90
2019-04-10T20:09:48.478Z,3.30
2019-04-10T20:12:18.718Z,2.93
2019-04-10T20:14:48.625Z,2.70
2019-04-10T20:17:19.829Z,3.50
2019-04-10T20:19:50.854Z,3.23
2019-04-10T20:22:21.512Z,3.20
2019-04-10T20:24:51.917Z,3.17
2019-04-10T20:27:22.124Z,3.50
2019-04-10T20:29:53.140Z,2.77
2019-04-10T20:32:23.778Z,2.90
2019-04-10T20:34:53.919Z,3.40
2019-04-10T20:37:24.819Z,3.47
2019-04-10T20:39:55.884Z,3.33
2019-04-10T20:42:29.975Z,2.80
2019-04-10T20:45:00.890Z,2.77
2019-04-10T20:47:31.064Z,2.83
2019-04-10T20:50:01.879Z,2.70
2019-04-10T20:52:32.600Z,2.83
2019-04-10T20:55:03.582Z,2.70
2019-04-10T20:57:35.270Z,2.80
2019-04-10T21:00:09.497Z,2.33
2019-04-10T21:02:39.884Z,2.87
2019-04-10T21:05:11.975Z,2.50
2019-04-10T21:07:42.266Z,2.83
2019-04-10T21:10:12.865Z,2.70
2019-04-10T21:12:44.060Z,2.57
2019-04-10T21:15:14.180Z,2.53
2019-04-10T21:17:44.558Z,2.63
2019-04-10T21:20:15.927Z,2.77
2019-04-10T21:22:45.733Z,2.60
2019-04-10T21:25:16.945Z,2.50
2019-04-10T21:27:49.213Z,2.60
2019-04-10T21:30:22.060Z,2.70
2019-04-10T21:33:03.848Z,2.73
2019-04-10T21:35:38.167Z,2.60
2019-04-10T21:38:08.459Z,2.57
2019-04-10T21:40:39.021Z,2.40
2019-04-10T21:43:10.038Z,2.67
2019-04-10T21:45:41.308Z,2.97
2019-04-10T21:48:12.536Z,2.37
2019-04-10T21:50:43.838Z,2.90
2019-04-10T21:53:14.330Z,2.80
2019-04-10T21:55:44.436Z,2.90
2019-04-10T21:58:14.489Z,3.10
2019-04-10T22:01:01.603Z,2.70
2019-04-10T22:03:31.946Z,2.90
2019-04-10T22:06:04.203Z,2.73
2019-04-10T22:08:35.567Z,2.83
2019-04-10T22:11:06.457Z,2.90
2019-04-10T22:13:38.039Z,2.93
2019-04-10T22:16:09.473Z,3.33
2019-04-10T22:18:39.467Z,2.83
2019-04-10T22:21:10.295Z,3.13
2019-04-10T22:23:40.557Z,2.97
2019-04-10T22:26:11.657Z,3.20
2019-04-10T22:28:41.721Z,3.07
2019-04-10T22:31:12.031Z,3.40
2019-04-10T22:33:42.760Z,3.33
2019-04-10T22:36:12.915Z,3.70
2019-04-10T22:38:43.998Z,3.10
2019-04-10T22:41:23.627Z,3.83
2019-04-10T22:43:46.993Z,3.50
2019-04-10T22:46:17.269Z,3.90
2019-04-10T22:48:47.908Z,3.80
2019-04-10T22:51:19.219Z,3.97
2019-04-10T22:53:50.057Z,4.03
2019-04-10T22:56:20.971Z,4.10
2019-04-10T22:58:51.231Z,4.37
2019-04-10T23:01:21.312Z,4.13
2019-04-10T23:03:51.540Z,4.60
2019-04-10T23:06:23.031Z,3.80
2019-04-10T23:08:53.312Z,4.57
2019-04-10T23:11:34.834Z,4.30
2019-04-10T23:13:55.007Z,4.77
2019-04-10T23:16:26.164Z,4.13
2019-04-10T23:18:56.112Z,4.47
2019-04-10T23:21:26.176Z,4.80
2019-04-10T23:23:57.106Z,4.87
2019-04-10T23:26:27.324Z,4.90
2019-04-10T23:28:57.997Z,5.20
2019-04-10T23:31:28.331Z,5.10
2019-04-10T23:33:58.640Z,5.07
2019-04-10T23:36:29.826Z,5.60
2019-04-10T23:38:59.843Z,5.77
2019-04-10T23:41:29.756Z,6.10
2019-04-10T23:43:59.902Z,6.13
2019-04-10T23:46:30.471Z,5.70
2019-04-10T23:49:01.352Z,6.07
2019-04-10T23:51:32.163Z,5.93
2019-04-10T23:54:02.856Z,6.13
2019-04-10T23:56:32.774Z,6.20
2019-04-10T23:59:02.690Z,6.57
